Time;durP1;ratioP1;P1;durP2;ratioP2;P2;SDS_P1;SDS_P2;PMS_P1;PMS_P2;Temp;Humidity;BMP_temperature;BMP_pressure;BME280_temperature;BME280_humidity;BME280_pressure;Samples;Min_cycle;Max_cycle;Signal;HPM_P1;HPM_P2
2021/01/21 00:02:25;;;;;;;;;;;;;;;8.84;83.31;98749.69;4969364;28;20186;-78
2021/01/21 00:04:50;;;;;;;;;;;;;;;8.88;82.99;98745.06;4945184;28;20364;-77
2021/01/21 00:07:16;;;;;;;;;;;;;;;8.87;82.70;98760.41;4980071;28;20295;-76
2021/01/21 00:09:41;;;;;;;;;;;;;;;8.86;83.25;98753.53;4963649;28;20290;-76
2021/01/21 00:12:07;;;;;;;;;;;;;;;8.94;82.94;98754.25;4971093;28;19914;-77
2021/01/21 00:14:32;;;;;;;;;;;;;;;9.02;83.31;98750.34;4967985;28;19914;-76
2021/01/21 00:16:58;;;;;;;;;;;;;;;8.95;82.50;98748.50;4954738;28;20001;-76
2021/01/21 00:19:23;;;;;;;;;;;;;;;8.79;83.32;98752.75;4956459;28;19940;-76
2021/01/21 00:21:48;;;;;;;;;;;;;;;8.79;83.97;98742.78;4953986;28;19914;-77
2021/01/21 00:24:14;;;;;;;;;;;;;;;8.77;83.99;98749.69;4954533;28;20287;-75
2021/01/21 00:26:39;;;;;;;;;;;;;;;8.69;83.98;98746.28;4973055;28;19925;-76
2021/01/21 00:29:04;;;;;;;;;;;;;;;8.76;83.98;98730.16;4953984;28;20298;-78
2021/01/21 00:31:30;;;;;;;;;;;;;;;8.82;84.22;98736.66;4973090;28;19914;-76
2021/01/21 00:33:55;;;;;;;;;;;;;;;8.84;83.98;98726.31;4987088;28;19964;-76
2021/01/21 00:36:20;;;;;;;;;;;;;;;8.78;84.34;98733.22;4970311;28;19914;-76
2021/01/21 00:38:46;;;;;;;;;;;;;;;8.81;84.27;98719.03;4976155;28;19920;-76
2021/01/21 00:41:11;;;;;;;;;;;;;;;8.68;84.78;98720.63;4979921;28;19936;-77
2021/01/21 00:43:37;;;;;;;;;;;;;;;8.86;84.32;98729.38;4953167;28;19914;-75
2021/01/21 00:46:03;;;;;;;;;;;;;;;8.71;84.47;98724.44;4953678;28;19914;-77
2021/01/21 00:48:28;;;;;;;;;;;;;;;8.76;84.19;98714.06;4953432;28;19921;-77
2021/01/21 00:50:54;;;;;;;;;;;;;;;8.73;84.55;98719.44;4940974;28;20138;-77
2021/01/21 00:53:19;;;;;;;;;;;;;;;8.74;84.58;98721.75;4958674;28;20295;-77
2021/01/21 00:55:45;;;;;;;;;;;;;;;8.75;84.90;98704.47;4970089;28;19917;-76
2021/01/21 00:58:10;;;;;;;;;;;;;;;8.73;85.07;98706.03;4977914;28;19921;-77
2021/01/21 01:00:36;;;;;;;;;;;;;;;8.81;84.59;98702.16;4972112;28;20302;-77
2021/01/21 01:03:06;;;;;;;;;;;;;;;8.80;84.50;98695.25;4953266;28;19973;-77
2021/01/21 01:05:34;;;;;;;;;;;;;;;8.95;83.96;98694.03;4985850;28;19906;-77
2021/01/21 01:07:59;;;;;;;;;;;;;;;8.96;83.34;98688.25;4972790;28;20418;-77
2021/01/21 01:10:25;;;;;;;;;;;;;;;8.93;83.62;98685.59;4957814;28;19918;-77
2021/01/21 01:12:51;;;;;;;;;;;;;;;8.89;83.80;98691.00;4963090;28;19949;-77
2021/01/21 01:15:20;;;;;;;;;;;;;;;8.94;83.77;98690.56;4963868;28;19922;-77
2021/01/21 01:17:45;;;;;;;;;;;;;;;8.83;84.36;98679.13;4957783;28;19925;-77
2021/01/21 01:20:11;;;;;;;;;;;;;;;8.79;84.36;98691.81;4967804;28;19968;-77
2021/01/21 01:22:38;;;;;;;;;;;;;;;8.84;84.00;98693.31;4984939;28;20691;-78
2021/01/21 01:25:04;;;;;;;;;;;;;;;8.82;84.27;98682.22;4980367;28;19970;-78
2021/01/21 01:27:30;;;;;;;;;;;;;;;8.74;84.21;98680.72;4951895;28;20391;-78
2021/01/21 01:29:59;;;;;;;;;;;;;;;8.72;84.82;98680.34;4951366;28;19917;-77
2021/01/21 01:32:24;;;;;;;;;;;;;;;8.78;84.82;98676.09;4959507;28;19921;-78
2021/01/21 01:34:53;;;;;;;;;;;;;;;8.69;84.58;98679.19;4972770;28;19913;-76
2021/01/21 01:37:20;;;;;;;;;;;;;;;8.57;85.12;98655.50;4959070;28;19914;-78
2021/01/21 01:39:51;;;;;;;;;;;;;;;8.62;86.14;98654.31;4973992;28;19914;-76
2021/01/21 01:42:38;;;;;;;;;;;;;;;8.66;85.29;98665.81;4959152;28;19913;-77
2021/01/21 01:45:07;;;;;;;;;;;;;;;8.54;85.62;98637.50;4972067;28;19967;-76
2021/01/21 01:47:33;;;;;;;;;;;;;;;8.56;85.90;98624.47;4955959;28;19918;-78
2021/01/21 01:49:59;;;;;;;;;;;;;;;8.62;85.51;98635.53;4984725;28;20009;-78
2021/01/21 01:52:29;;;;;;;;;;;;;;;8.66;85.08;98649.72;4960289;28;19914;-78
2021/01/21 01:55:14;;;;;;;;;;;;;;;8.67;84.91;98630.53;4937496;28;19926;-77
2021/01/21 01:57:54;;;;;;;;;;;;;;;8.54;86.06;98642.09;4943435;28;20425;-78
2021/01/21 02:00:24;;;;;;;;;;;;;;;8.61;85.92;98628.66;4980479;28;20564;-77
2021/01/21 02:02:59;;;;;;;;;;;;;;;8.53;86.04;98617.22;4953561;28;20335;-78
2021/01/21 02:05:25;;;;;;;;;;;;;;;8.46;86.11;98617.22;4972833;28;19918;-77
2021/01/21 02:07:51;;;;;;;;;;;;;;;8.57;85.65;98598.41;4935683;28;19922;-77
2021/01/21 02:10:18;;;;;;;;;;;;;;;8.55;85.64;98609.53;4955920;28;19925;-78
2021/01/21 02:13:21;;;;;;;;;;;;;;;8.58;85.76;98619.47;4948496;28;19920;-78
2021/01/21 02:15:46;;;;;;;;;;;;;;;8.57;85.55;98591.13;4957843;28;20343;-77
2021/01/21 02:18:21;;;;;;;;;;;;;;;8.60;85.63;98584.19;4989005;28;19917;-77
2021/01/21 02:21:05;;;;;;;;;;;;;;;8.67;85.19;98587.59;4983989;28;19936;-78
2021/01/21 02:23:49;;;;;;;;;;;;;;;8.62;85.12;98577.28;4989703;28;19976;-77
2021/01/21 02:26:23;;;;;;;;;;;;;;;8.74;85.01;98568.78;4968140;28;19929;-78
2021/01/21 02:29:02;;;;;;;;;;;;;;;8.74;84.45;98568.78;4963702;28;19913;-77
2021/01/21 02:31:27;;;;;;;;;;;;;;;8.72;84.43;98556.91;4996609;28;20005;-76
2021/01/21 02:33:57;;;;;;;;;;;;;;;8.68;84.82;98556.94;4972515;28;19918;-78
2021/01/21 02:36:29;;;;;;;;;;;;;;;8.73;85.53;98548.47;4963403;28;20314;-77
2021/01/21 02:38:56;;;;;;;;;;;;;;;8.76;84.30;98561.13;4940782;28;19934;-78
2021/01/21 02:41:22;;;;;;;;;;;;;;;8.66;84.77;98543.16;4960246;28;19918;-78
2021/01/21 02:43:51;;;;;;;;;;;;;;;8.68;84.94;98543.53;4957729;28;20422;-78
2021/01/21 02:46:20;;;;;;;;;;;;;;;8.80;84.52;98540.38;4973243;28;19918;-77
2021/01/21 02:48:47;;;;;;;;;;;;;;;8.77;84.73;98530.44;4958311;28;19919;-78
2021/01/21 02:51:19;;;;;;;;;;;;;;;8.87;84.24;98524.22;4948864;28;19918;-78
2021/01/21 02:53:47;;;;;;;;;;;;;;;8.84;83.68;98522.34;4956837;28;19961;-78
2021/01/21 02:56:19;;;;;;;;;;;;;;;8.79;84.46;98505.88;4944512;28;19922;-78
2021/01/21 02:58:54;;;;;;;;;;;;;;;8.74;84.41;98520.50;4986419;28;19961;-78
2021/01/21 03:01:19;;;;;;;;;;;;;;;8.75;84.33;98500.53;4966864;28;19920;-78
2021/01/21 03:03:52;;;;;;;;;;;;;;;8.82;84.39;98495.13;4988242;28;19910;-77
2021/01/21 03:06:20;;;;;;;;;;;;;;;8.74;84.59;98493.66;4999357;28;19925;-78
2021/01/21 03:08:48;;;;;;;;;;;;;;;8.73;84.89;98497.50;4956987;28;19913;-77
2021/01/21 03:11:14;;;;;;;;;;;;;;;8.82;83.88;98475.59;4984803;28;20271;-78
2021/01/21 03:13:46;;;;;;;;;;;;;;;8.79;84.49;98473.69;4968574;28;19914;-78
2021/01/21 03:16:14;;;;;;;;;;;;;;;8.74;84.56;98455.34;4937411;29;19940;-77
2021/01/21 03:18:43;;;;;;;;;;;;;;;8.80;84.75;98454.53;4983378;28;19940;-78
2021/01/21 03:21:09;;;;;;;;;;;;;;;8.81;84.45;98450.66;4966493;28;19914;-78
2021/01/21 03:23:43;;;;;;;;;;;;;;;8.83;84.13;98450.25;4955423;28;20387;-78
2021/01/21 03:26:12;;;;;;;;;;;;;;;8.84;84.54;98449.13;4954497;28;19924;-78
2021/01/21 03:28:41;;;;;;;;;;;;;;;9.01;83.48;98440.13;4966452;28;20012;-77
2021/01/21 03:31:11;;;;;;;;;;;;;;;8.96;84.25;98435.22;4962742;28;20326;-78
2021/01/21 03:33:37;;;;;;;;;;;;;;;8.97;83.67;98415.25;4989337;28;19960;-78
2021/01/21 03:36:03;;;;;;;;;;;;;;;8.93;84.07;98442.13;4954219;28;19914;-78
2021/01/21 03:38:28;;;;;;;;;;;;;;;8.98;84.50;98430.22;4952130;28;19918;-77
2021/01/21 03:41:12;;;;;;;;;;;;;;;8.74;84.90;98439.22;4951167;28;19976;-78
2021/01/21 03:43:41;;;;;;;;;;;;;;;8.78;84.90;98419.28;4951848;28;19972;-77
2021/01/21 03:46:33;;;;;;;;;;;;;;;8.83;84.97;98416.16;4963029;28;20379;-78
2021/01/21 03:48:58;;;;;;;;;;;;;;;8.78;84.88;98400.50;4954916;28;19928;-77
2021/01/21 03:51:49;;;;;;;;;;;;;;;8.77;85.75;98400.88;4952683;28;19914;-77
2021/01/21 03:54:33;;;;;;;;;;;;;;;8.65;85.87;98394.06;4980908;28;19914;-78
2021/01/21 03:57:04;;;;;;;;;;;;;;;8.63;85.60;98395.66;4995103;28;20382;-77
2021/01/21 03:59:30;;;;;;;;;;;;;;;8.62;85.53;98386.84;4986597;28;19960;-75
2021/01/21 04:01:57;;;;;;;;;;;;;;;8.68;86.21;98376.44;4954307;28;19914;-76
2021/01/21 04:04:23;;;;;;;;;;;;;;;8.70;85.08;98374.88;4955906;28;20455;-78
2021/01/21 04:06:48;;;;;;;;;;;;;;;8.76;85.02;98372.53;4955685;28;20288;-77
2021/01/21 04:09:18;;;;;;;;;;;;;;;8.75;85.16;98379.06;4953156;28;19914;-77
2021/01/21 04:12:09;;;;;;;;;;;;;;;8.63;85.74;98352.72;4962610;28;19914;-78
2021/01/21 04:14:36;;;;;;;;;;;;;;;8.65;85.33;98356.50;4986798;28;20460;-78
2021/01/21 04:17:01;;;;;;;;;;;;;;;8.49;86.19;98350.16;4955332;28;21091;-78
2021/01/21 04:19:28;;;;;;;;;;;;;;;8.44;86.08;98350.63;4951983;28;19978;-77
2021/01/21 04:21:54;;;;;;;;;;;;;;;8.51;85.82;98342.50;4958911;28;20021;-78
2021/01/21 04:24:24;;;;;;;;;;;;;;;8.47;85.85;98342.53;4954922;28;19914;-77
2021/01/21 04:26:55;;;;;;;;;;;;;;;8.46;86.35;98343.66;4956351;28;20290;-78
2021/01/21 04:29:31;;;;;;;;;;;;;;;8.37;86.36;98334.56;4959398;28;20303;-78
2021/01/21 04:31:56;;;;;;;;;;;;;;;8.49;86.25;98324.13;4986063;28;19977;-76
2021/01/21 04:34:25;;;;;;;;;;;;;;;8.46;85.58;98316.13;4954274;28;19917;-78
2021/01/21 04:36:52;;;;;;;;;;;;;;;8.41;85.78;98328.03;4983044;28;19913;-78
2021/01/21 04:39:37;;;;;;;;;;;;;;;8.43;85.78;98314.22;4962400;28;19925;-78
2021/01/21 04:42:05;;;;;;;;;;;;;;;8.38;86.42;98315.41;4959580;28;19944;-78
2021/01/21 04:44:37;;;;;;;;;;;;;;;8.41;86.16;98311.94;4952369;28;20007;-77
2021/01/21 04:47:08;;;;;;;;;;;;;;;8.40;85.62;98299.66;4943706;28;19918;-78
2021/01/21 04:49:51;;;;;;;;;;;;;;;8.39;85.98;98303.53;4959266;28;19921;-78
2021/01/21 04:52:17;;;;;;;;;;;;;;;8.36;85.74;98315.06;4958285;28;19965;-78
2021/01/21 04:54:47;;;;;;;;;;;;;;;8.43;86.10;98306.94;4955995;28;19929;-78
2021/01/21 04:57:20;;;;;;;;;;;;;;;8.59;85.47;98293.75;4962305;28;19973;-76
2021/01/21 04:59:54;;;;;;;;;;;;;;;8.38;85.95;98287.84;4956525;28;19914;-77
2021/01/21 05:02:40;;;;;;;;;;;;;;;8.34;85.96;98276.38;4976516;28;19914;-76
2021/01/21 05:05:32;;;;;;;;;;;;;;;8.46;86.04;98284.66;4956076;28;19914;-78
2021/01/21 05:07:59;;;;;;;;;;;;;;;8.55;85.04;98268.13;4960576;28;19996;-77
2021/01/21 05:10:30;;;;;;;;;;;;;;;8.59;84.99;98269.63;4970966;28;19933;-78
2021/01/21 05:12:58;;;;;;;;;;;;;;;8.63;84.41;98267.63;4961419;28;19914;-78
2021/01/21 05:15:52;;;;;;;;;;;;;;;8.58;84.49;98268.06;4922288;28;20396;-78
2021/01/21 05:18:33;;;;;;;;;;;;;;;8.65;84.60;98249.22;4956188;28;19957;-77
2021/01/21 05:21:17;;;;;;;;;;;;;;;8.68;84.18;98256.47;4965462;28;20278;-78
2021/01/21 05:24:06;;;;;;;;;;;;;;;8.79;83.95;98265.16;4969163;28;19929;-77
2021/01/21 05:27:01;;;;;;;;;;;;;;;8.75;84.11;98252.97;4950745;28;19917;-78
2021/01/21 05:29:49;;;;;;;;;;;;;;;8.66;84.33;98252.66;4956876;28;19914;-78
2021/01/21 05:32:16;;;;;;;;;;;;;;;8.65;83.69;98243.09;4986850;28;19917;-79
2021/01/21 05:34:48;;;;;;;;;;;;;;;8.76;84.37;98255.22;4961388;28;19922;-78
2021/01/21 05:37:26;;;;;;;;;;;;;;;8.76;83.33;98233.00;4954842;28;20431;-79
2021/01/21 05:40:11;;;;;;;;;;;;;;;8.73;82.93;98223.81;4981889;28;19917;-77
2021/01/21 05:43:15;;;;;;;;;;;;;;;8.88;82.89;98227.84;4954620;28;20628;-78
2021/01/21 05:45:53;;;;;;;;;;;;;;;8.79;82.66;98206.13;4930703;28;19983;-78
2021/01/21 05:48:21;;;;;;;;;;;;;;;8.86;82.51;98194.53;4955102;28;19925;-78
2021/01/21 05:50:47;;;;;;;;;;;;;;;8.88;81.64;98192.97;5000439;28;19932;-78
2021/01/21 05:53:13;;;;;;;;;;;;;;;8.94;81.86;98191.34;4965557;28;19943;-78
2021/01/21 05:55:47;;;;;;;;;;;;;;;8.95;81.90;98192.88;4945752;28;19985;-78
2021/01/21 05:58:14;;;;;;;;;;;;;;;9.05;81.10;98183.16;4943564;28;19988;-78
2021/01/21 06:00:42;;;;;;;;;;;;;;;9.07;81.40;98170.88;4946303;29;19918;-77
2021/01/21 06:03:24;;;;;;;;;;;;;;;9.06;80.21;98179.28;4969832;28;19918;-79
2021/01/21 06:05:57;;;;;;;;;;;;;;;9.14;80.40;98174.63;4962519;28;19943;-78
2021/01/21 06:08:22;;;;;;;;;;;;;;;9.16;80.07;98185.69;4962066;28;19917;-78
2021/01/21 06:10:50;;;;;;;;;;;;;;;9.16;80.39;98175.69;4947464;28;20568;-78
2021/01/21 06:13:15;;;;;;;;;;;;;;;9.22;79.92;98186.75;4957452;28;20520;-78
2021/01/21 06:15:41;;;;;;;;;;;;;;;9.23;79.50;98175.63;4974025;28;19910;-75
2021/01/21 06:18:06;;;;;;;;;;;;;;;9.29;79.01;98168.59;4957766;28;19918;-79
2021/01/21 06:20:44;;;;;;;;;;;;;;;9.41;78.18;98159.22;4954162;28;19914;-77
2021/01/21 06:23:43;;;;;;;;;;;;;;;9.45;78.08;98152.63;4960340;28;20567;-76
2021/01/21 06:26:20;;;;;;;;;;;;;;;9.42;77.91;98148.06;4994720;28;19920;-76
2021/01/21 06:28:47;;;;;;;;;;;;;;;9.53;77.38;98143.28;4960594;28;19914;-77
2021/01/21 06:31:15;;;;;;;;;;;;;;;9.61;76.43;98152.75;4962664;28;19914;-78
2021/01/21 06:33:41;;;;;;;;;;;;;;;9.64;76.63;98149.22;4965388;28;20485;-78
2021/01/21 06:36:08;;;;;;;;;;;;;;;9.73;76.42;98140.66;4959332;28;19925;-78
2021/01/21 06:38:38;;;;;;;;;;;;;;;9.70;76.43;98149.50;4988717;28;20328;-76
2021/01/21 06:41:07;;;;;;;;;;;;;;;9.74;76.83;98144.84;4980455;28;20001;-78
2021/01/21 06:43:35;;;;;;;;;;;;;;;9.70;75.86;98144.91;4947971;28;19940;-79
2021/01/21 06:46:01;;;;;;;;;;;;;;;9.76;75.61;98139.81;4955795;28;20264;-79
2021/01/21 06:48:27;;;;;;;;;;;;;;;9.84;76.33;98146.59;4942865;28;19933;-78
2021/01/21 06:50:53;;;;;;;;;;;;;;;9.99;75.08;98131.72;4954098;28;19914;-78
2021/01/21 06:53:18;;;;;;;;;;;;;;;9.88;75.34;98134.59;4960477;28;19921;-78
2021/01/21 06:55:48;;;;;;;;;;;;;;;9.81;75.22;98136.66;4962111;28;19918;-78
2021/01/21 06:58:14;;;;;;;;;;;;;;;9.83;75.88;98134.34;4959779;28;19988;-78
2021/01/21 07:00:40;;;;;;;;;;;;;;;9.85;75.15;98135.41;4959904;28;19914;-78
2021/01/21 07:03:06;;;;;;;;;;;;;;;9.87;74.87;98143.09;4982365;28;19920;-75
2021/01/21 07:05:32;;;;;;;;;;;;;;;9.91;74.33;98141.84;4952521;28;19925;-77
2021/01/21 07:08:01;;;;;;;;;;;;;;;9.93;74.42;98128.75;4985572;28;20303;-76
2021/01/21 07:10:37;;;;;;;;;;;;;;;10.01;73.98;98140.88;4938198;28;19929;-77
2021/01/21 07:13:07;;;;;;;;;;;;;;;10.00;73.60;98146.69;4968196;28;19950;-76
2021/01/21 07:15:56;;;;;;;;;;;;;;;10.08;73.71;98137.31;4979733;28;19917;-78
2021/01/21 07:18:23;;;;;;;;;;;;;;;10.03;73.58;98141.22;4956701;28;19914;-77
2021/01/21 07:21:02;;;;;;;;;;;;;;;9.96;73.91;98133.31;4961461;28;19925;-76
2021/01/21 07:23:35;;;;;;;;;;;;;;;10.04;73.87;98147.38;4985693;28;20399;-77
2021/01/21 07:26:19;;;;;;;;;;;;;;;9.99;74.30;98139.78;4984376;28;19914;-76
2021/01/21 07:29:03;;;;;;;;;;;;;;;10.06;74.05;98142.34;4971831;28;20299;-77
2021/01/21 07:31:29;;;;;;;;;;;;;;;10.00;74.26;98152.06;4985717;28;20603;-77
2021/01/21 07:34:13;;;;;;;;;;;;;;;9.99;74.44;98142.47;4954369;28;19917;-76
2021/01/21 07:36:39;;;;;;;;;;;;;;;9.99;74.10;98145.16;4952850;28;19922;-77
2021/01/21 07:39:04;;;;;;;;;;;;;;;9.97;74.17;98153.63;4977714;28;19918;-77
2021/01/21 07:41:42;;;;;;;;;;;;;;;10.05;74.49;98154.25;4956220;28;19918;-76
2021/01/21 07:44:07;;;;;;;;;;;;;;;9.99;74.17;98166.66;4961795;28;19915;-76
2021/01/21 07:46:33;;;;;;;;;;;;;;;10.10;74.41;98169.97;4972190;28;19924;-76
2021/01/21 07:49:17;;;;;;;;;;;;;;;10.16;74.00;98178.31;4954869;28;19918;-76
2021/01/21 07:51:42;;;;;;;;;;;;;;;10.16;74.09;98181.75;4959849;28;19979;-77
2021/01/21 07:54:08;;;;;;;;;;;;;;;10.24;74.06;98188.50;4987118;28;19922;-76
2021/01/21 07:56:33;;;;;;;;;;;;;;;10.39;73.90;98195.16;4968230;28;19924;-76
2021/01/21 07:58:59;;;;;;;;;;;;;;;10.35;74.28;98205.22;4947412;28;20061;-76
2021/01/21 08:01:25;;;;;;;;;;;;;;;10.39;74.34;98238.19;4951716;28;19949;-77
2021/01/21 08:03:54;;;;;;;;;;;;;;;10.40;74.96;98279.28;4951852;28;20019;-76
2021/01/21 08:06:21;;;;;;;;;;;;;;;10.48;80.30;98364.09;4968747;28;20414;-78
2021/01/21 08:08:48;;;;;;;;;;;;;;;10.28;85.32;98382.88;4937403;28;19921;-76
2021/01/21 08:11:15;;;;;;;;;;;;;;;9.86;89.48;98388.84;4960050;28;19922;-77
2021/01/21 08:13:41;;;;;;;;;;;;;;;9.53;91.18;98395.81;4953141;28;19949;-77
2021/01/21 08:16:11;;;;;;;;;;;;;;;9.51;91.58;98403.50;4952013;28;20001;-77
2021/01/21 08:18:36;;;;;;;;;;;;;;;9.40;92.03;98413.63;4983668;28;19922;-77
2021/01/21 08:21:21;;;;;;;;;;;;;;;9.25;91.43;98409.59;4958504;28;19925;-77
2021/01/21 08:23:50;;;;;;;;;;;;;;;8.96;89.78;98401.06;4972444;28;19960;-77
2021/01/21 08:26:16;;;;;;;;;;;;;;;9.00;89.46;98411.78;4954394;28;20045;-77
2021/01/21 08:28:43;;;;;;;;;;;;;;;8.81;89.00;98434.56;4956171;28;20811;-78
2021/01/21 08:31:09;;;;;;;;;;;;;;;8.73;88.84;98433.09;4985456;28;20367;-78
2021/01/21 08:33:34;;;;;;;;;;;;;;;8.72;88.91;98436.94;4969756;28;19929;-77
2021/01/21 08:36:04;;;;;;;;;;;;;;;8.59;88.33;98435.94;4969382;28;19961;-78
2021/01/21 08:38:40;;;;;;;;;;;;;;;8.60;89.45;98445.47;4956810;28;19929;-78
2021/01/21 08:41:06;;;;;;;;;;;;;;;8.64;89.28;98445.44;4956203;28;20371;-76
2021/01/21 08:43:32;;;;;;;;;;;;;;;8.52;90.65;98438.63;4952586;28;20818;-78
2021/01/21 08:45:57;;;;;;;;;;;;;;;8.55;90.67;98434.41;4972125;28;19914;-78
2021/01/21 08:48:31;;;;;;;;;;;;;;;8.55;90.51;98415.63;4962399;28;19972;-77
2021/01/21 08:50:57;;;;;;;;;;;;;;;8.59;89.71;98437.84;4949235;28;19962;-76
2021/01/21 08:53:23;;;;;;;;;;;;;;;8.62;90.04;98461.19;4975636;28;20447;-76
2021/01/21 08:55:51;;;;;;;;;;;;;;;8.64;90.83;98451.59;4959415;28;19976;-77
2021/01/21 08:58:17;;;;;;;;;;;;;;;8.61;91.42;98430.94;4972590;28;19972;-75
2021/01/21 09:01:07;;;;;;;;;;;;;;;8.64;91.68;98429.34;4961236;28;19979;-77
2021/01/21 09:03:36;;;;;;;;;;;;;;;8.69;91.41;98427.00;4966490;28;19914;-76
2021/01/21 09:06:03;;;;;;;;;;;;;;;8.76;92.02;98453.78;4977084;28;19922;-76
2021/01/21 09:08:28;;;;;;;;;;;;;;;8.74;91.95;98433.88;4954371;28;20318;-77
2021/01/21 09:10:56;;;;;;;;;;;;;;;8.80;91.71;98467.16;4958979;28;19922;-77
2021/01/21 09:13:25;;;;;;;;;;;;;;;8.64;91.86;98475.72;4948774;28;19915;-77
2021/01/21 09:15:58;;;;;;;;;;;;;;;8.59;91.89;98464.66;4973906;28;19964;-77
2021/01/21 09:18:24;;;;;;;;;;;;;;;8.65;91.50;98485.28;4963412;28;19914;-77
2021/01/21 09:20:50;;;;;;;;;;;;;;;8.70;90.74;98446.53;4979614;28;20691;-77
2021/01/21 09:23:18;;;;;;;;;;;;;;;8.78;90.48;98499.78;4989684;28;19921;-76
2021/01/21 09:25:44;;;;;;;;;;;;;;;8.74;91.06;98498.25;4976949;28;19914;-78
2021/01/21 09:28:10;;;;;;;;;;;;;;;8.76;90.73;98495.94;4962023;28;19969;-77
2021/01/21 09:30:36;;;;;;;;;;;;;;;8.83;90.44;98506.63;4956866;28;19917;-77
2021/01/21 09:33:01;;;;;;;;;;;;;;;8.65;90.58;98517.47;4970451;28;20477;-77
2021/01/21 09:35:27;;;;;;;;;;;;;;;8.75;90.58;98502.50;4965996;28;19919;-76
2021/01/21 09:37:53;;;;;;;;;;;;;;;8.82;89.74;98487.09;4966687;28;19913;-77
2021/01/21 09:40:21;;;;;;;;;;;;;;;8.81;89.25;98498.97;4980337;28;19914;-77
2021/01/21 09:42:47;;;;;;;;;;;;;;;8.83;88.82;98491.28;4958683;28;19910;-76
2021/01/21 09:45:13;;;;;;;;;;;;;;;8.86;88.07;98509.28;4966123;28;20390;-75
2021/01/21 09:47:38;;;;;;;;;;;;;;;8.81;88.21;98492.84;4984856;28;19936;-75
2021/01/21 09:50:05;;;;;;;;;;;;;;;8.76;88.14;98496.72;4968040;28;20394;-76
2021/01/21 09:52:32;;;;;;;;;;;;;;;8.74;89.15;98520.50;4966988;28;20005;-76
2021/01/21 09:54:57;;;;;;;;;;;;;;;8.67;89.45;98520.53;4976659;28;19921;-75
2021/01/21 09:57:22;;;;;;;;;;;;;;;8.76;89.13;98526.25;4952418;28;19914;-76
2021/01/21 09:59:48;;;;;;;;;;;;;;;8.80;88.81;98523.53;4953984;28;19944;-74
2021/01/21 10:02:13;;;;;;;;;;;;;;;8.76;88.68;98536.19;4958984;28;19975;-75
2021/01/21 10:04:40;;;;;;;;;;;;;;;8.94;87.91;98537.56;4966366;28;19946;-76
2021/01/21 10:07:06;;;;;;;;;;;;;;;8.95;88.04;98541.03;4961777;28;19925;-76
2021/01/21 10:09:32;;;;;;;;;;;;;;;9.10;87.41;98556.63;4992850;28;20375;-76
2021/01/21 10:11:57;;;;;;;;;;;;;;;8.96;88.02;98564.06;4973395;28;19929;-76
2021/01/21 10:14:23;;;;;;;;;;;;;;;8.92;87.25;98574.78;4975718;28;19917;-76
2021/01/21 10:16:48;;;;;;;;;;;;;;;9.02;87.86;98571.25;4956680;28;19924;-75
2021/01/21 10:19:14;;;;;;;;;;;;;;;8.93;87.10;98573.66;4974345;28;20438;-76
2021/01/21 10:21:39;;;;;;;;;;;;;;;9.01;87.14;98571.66;4956562;28;19953;-76
2021/01/21 10:24:06;;;;;;;;;;;;;;;9.02;87.34;98571.25;4962614;28;19973;-76
2021/01/21 10:26:31;;;;;;;;;;;;;;;9.11;87.17;98578.88;4951953;28;19921;-77
2021/01/21 10:28:57;;;;;;;;;;;;;;;9.10;86.06;98564.69;4980787;28;19921;-76
2021/01/21 10:31:22;;;;;;;;;;;;;;;9.21;85.19;98569.22;4958804;28;19917;-76
2021/01/21 10:33:47;;;;;;;;;;;;;;;9.10;84.70;98570.06;4969173;28;20369;-77
2021/01/21 10:36:14;;;;;;;;;;;;;;;9.12;85.03;98563.53;4968696;28;19914;-77
2021/01/21 10:38:41;;;;;;;;;;;;;;;8.94;84.77;98559.06;4967044;28;19918;-76
2021/01/21 10:41:07;;;;;;;;;;;;;;;9.17;85.23;98566.56;4953918;28;19914;-76
2021/01/21 10:43:32;;;;;;;;;;;;;;;9.44;83.38;98572.06;4976874;28;19965;-76
2021/01/21 10:45:58;;;;;;;;;;;;;;;9.48;82.29;98570.88;4951179;28;19914;-76
2021/01/21 10:48:23;;;;;;;;;;;;;;;9.70;82.14;98574.09;4956005;28;19922;-76
2021/01/21 10:50:49;;;;;;;;;;;;;;;9.97;79.34;98572.28;4956363;28;19920;-77
2021/01/21 10:53:14;;;;;;;;;;;;;;;10.00;79.51;98563.41;4974228;28;19957;-77
2021/01/21 10:55:40;;;;;;;;;;;;;;;10.12;78.38;98568.31;4971276;28;19921;-77
2021/01/21 10:58:06;;;;;;;;;;;;;;;10.18;77.27;98574.00;4998202;28;19914;-76
2021/01/21 11:00:31;;;;;;;;;;;;;;;11.10;73.32;98576.91;4993668;28;19918;-76
2021/01/21 11:02:57;;;;;;;;;;;;;;;10.64;72.92;98579.53;4971259;28;19917;-76
2021/01/21 11:05:25;;;;;;;;;;;;;;;11.20;72.27;98572.53;4955787;28;19929;-76
2021/01/21 11:07:50;;;;;;;;;;;;;;;11.12;71.69;98576.50;4966668;28;20371;-76
2021/01/21 11:10:15;;;;;;;;;;;;;;;11.32;71.08;98578.09;4975330;28;19921;-77
2021/01/21 11:12:42;;;;;;;;;;;;;;;11.67;68.44;98565.97;4980049;28;19913;-76
2021/01/21 11:15:07;;;;;;;;;;;;;;;11.24;70.72;98565.91;4961102;28;19914;-76
2021/01/21 11:17:33;;;;;;;;;;;;;;;10.75;71.34;98561.28;4950398;28;20016;-77
2021/01/21 11:19:58;;;;;;;;;;;;;;;10.71;72.38;98568.66;4971978;28;19942;-77
2021/01/21 11:22:24;;;;;;;;;;;;;;;10.41;72.24;98553.34;4975539;28;19918;-77
2021/01/21 11:24:49;;;;;;;;;;;;;;;10.38;72.56;98572.19;4957031;28;19953;-76
2021/01/21 11:27:15;;;;;;;;;;;;;;;10.16;73.42;98565.56;4957560;28;20290;-75
2021/01/21 11:29:40;;;;;;;;;;;;;;;10.10;73.99;98572.56;4941642;28;19914;-76
2021/01/21 11:32:05;;;;;;;;;;;;;;;10.01;74.64;98573.75;4934309;28;20391;-76
2021/01/21 11:34:31;;;;;;;;;;;;;;;9.91;73.96;98571.94;4963423;28;19918;-77
2021/01/21 11:36:56;;;;;;;;;;;;;;;10.02;72.82;98578.00;4945467;28;19921;-76
2021/01/21 11:39:21;;;;;;;;;;;;;;;10.24;72.78;98577.78;4946063;28;19915;-76
2021/01/21 11:41:47;;;;;;;;;;;;;;;10.22;73.37;98578.16;4972454;28;19924;-76
2021/01/21 11:44:12;;;;;;;;;;;;;;;10.22;72.58;98572.78;4968373;28;19918;-76
2021/01/21 11:46:38;;;;;;;;;;;;;;;10.15;73.19;98569.41;4936799;28;19918;-76
2021/01/21 11:49:03;;;;;;;;;;;;;;;10.16;73.14;98577.09;4949422;28;20294;-77
2021/01/21 11:51:29;;;;;;;;;;;;;;;9.80;73.41;98581.31;4957767;28;19922;-76
2021/01/21 11:53:54;;;;;;;;;;;;;;;9.95;71.74;98570.00;4969428;28;19981;-76
2021/01/21 11:56:20;;;;;;;;;;;;;;;9.76;72.35;98567.13;4982369;28;20009;-76
2021/01/21 11:58:45;;;;;;;;;;;;;;;9.81;71.89;98562.06;4987188;28;20455;-77
2021/01/21 12:01:11;;;;;;;;;;;;;;;9.84;71.70;98560.53;4953034;28;19945;-76
2021/01/21 12:03:36;;;;;;;;;;;;;;;9.83;71.59;98578.56;4992191;28;19921;-77
2021/01/21 12:06:02;;;;;;;;;;;;;;;9.84;70.30;98572.03;4974857;28;19969;-76
2021/01/21 12:08:28;;;;;;;;;;;;;;;9.92;70.51;98575.41;4954264;28;19949;-77
2021/01/21 12:10:54;;;;;;;;;;;;;;;9.78;68.76;98568.25;4949420;28;19922;-75
2021/01/21 12:13:20;;;;;;;;;;;;;;;9.82;70.05;98550.19;4965963;28;19914;-75
2021/01/21 12:15:45;;;;;;;;;;;;;;;9.81;69.65;98569.41;4962081;28;19913;-77
2021/01/21 12:18:10;;;;;;;;;;;;;;;9.84;69.04;98560.53;4946576;28;20387;-76
2021/01/21 12:20:36;;;;;;;;;;;;;;;9.92;68.72;98564.66;4955874;28;19926;-75
2021/01/21 12:23:02;;;;;;;;;;;;;;;10.00;68.96;98572.25;4970256;28;19913;-75
2021/01/21 12:25:27;;;;;;;;;;;;;;;9.88;68.13;98559.31;4948382;28;19914;-75
2021/01/21 12:27:53;;;;;;;;;;;;;;;9.99;69.34;98570.72;4975549;28;19918;-75
2021/01/21 12:30:18;;;;;;;;;;;;;;;9.96;68.05;98568.06;4946324;28;19925;-74
2021/01/21 12:32:43;;;;;;;;;;;;;;;9.86;68.72;98579.69;4930854;28;726513;-76
2021/01/21 12:35:09;;;;;;;;;;;;;;;9.77;69.90;98568.66;4977420;28;19926;-75
2021/01/21 12:37:35;;;;;;;;;;;;;;;9.83;69.68;98567.81;4962005;28;19962;-76
2021/01/21 12:40:00;;;;;;;;;;;;;;;9.75;68.36;98560.25;4947829;28;20295;-75
2021/01/21 12:42:26;;;;;;;;;;;;;;;9.86;68.36;98560.88;4978594;28;20375;-74
2021/01/21 12:44:51;;;;;;;;;;;;;;;9.76;67.59;98562.53;4929917;28;19921;-75
2021/01/21 12:47:17;;;;;;;;;;;;;;;9.73;68.57;98555.28;4948323;28;19918;-75
2021/01/21 12:49:42;;;;;;;;;;;;;;;9.50;68.77;98549.00;4970700;28;19993;-75
2021/01/21 12:52:09;;;;;;;;;;;;;;;9.73;68.84;98552.59;4951873;28;20287;-76
2021/01/21 12:54:36;;;;;;;;;;;;;;;9.75;69.05;98561.00;4965777;28;19925;-75
2021/01/21 12:57:02;;;;;;;;;;;;;;;9.81;68.41;98547.91;4950392;28;19935;-75
2021/01/21 12:59:27;;;;;;;;;;;;;;;9.74;68.09;98580.22;4978417;28;19942;-76
2021/01/21 13:01:53;;;;;;;;;;;;;;;9.68;68.07;98555.69;4959126;28;19977;-75
2021/01/21 13:04:18;;;;;;;;;;;;;;;9.66;67.30;98565.31;4982246;28;19928;-76
2021/01/21 13:06:43;;;;;;;;;;;;;;;9.74;66.55;98558.72;4997126;28;19929;-75